To NAV CANADA Home Page Login to a new session Search on AWWS site Disclaimer Vers la page française équivalente Tips FAQ What's new on the site To the Forecasts and Observations / NOTAM section To "File a Flight Plan" website Publications and other links Update of the User's profile FIC Telephone Numbers My Weather Data Folder Route Weather Data Regional Weather Data Local Weather Data To the Forecasts and Observations / NOTAM section
Request Generated 01/22/2019 at 01:50:45 UTC . Weather information available at that time is displayed.


Save this request - Inactive

METAR/TAF

If you find any discrepancies between the coded METAR/TAF and the plain language METAR/TAF please use the coded METAR/TAF. LWIS bulletins are not decoded in plain language.

LONDON/ON    

METAR CYXU 220100Z VRB02KT 15SM FEW030 M16/M18 A3052 RMK SC1 SC TR SLP363=
METAR
LOCATION
CYXU - LONDON/ON
DATE - TIME
22 JANUARY 2019 - 0100 UTC
WIND
VRB @ 2  KNOTS
VISIBILITY
15 STAT.  MILES
RUNWAY VISUAL RANGE
WEATHER
CLOUDINESS
FEW CLOUDS (1/8 - 2/8) 3000  FT
TEMP / DEWPOINT
-16 C / -18 C
ALTIMETER
30.52 IN HG
RECENT WEATHER
WIND SHEAR

METAR CYXU 220000Z 27004KT 15SM FEW030 M15/M17 A3051 RMK SC1 SLP360=
METAR
LOCATION
CYXU - LONDON/ON
DATE - TIME
22 JANUARY 2019 - 0000 UTC
WIND
270 TRUE @ 4  KNOTS
VISIBILITY
15 STAT.  MILES
RUNWAY VISUAL RANGE
WEATHER
CLOUDINESS
FEW CLOUDS (1/8 - 2/8) 3000  FT
TEMP / DEWPOINT
-15 C / -17 C
ALTIMETER
30.51 IN HG
RECENT WEATHER
WIND SHEAR

METAR CYXU 212300Z 00000KT 15SM FEW030 M14/M17 A3049 RMK SC1 SLP353=
METAR
LOCATION
CYXU - LONDON/ON
DATE - TIME
21 JANUARY 2019 - 2300 UTC
WIND
CALM
VISIBILITY
15 STAT.  MILES
RUNWAY VISUAL RANGE
WEATHER
CLOUDINESS
FEW CLOUDS (1/8 - 2/8) 3000  FT
TEMP / DEWPOINT
-14 C / -17 C
ALTIMETER
30.49 IN HG
RECENT WEATHER
WIND SHEAR

TAF CYXU 212338Z 2200/2224 26007KT P6SM SCT025 TEMPO 2200/2203 BKN020 BECMG 2201/2203 VRB03KT FM221100 09005KT P6SM BKN120 OVC200 FM221400 13010KT P6SM OVC100 BECMG 2216/2217 14012G22KT FM222000 16012G22KT P6SM SCT140 BKN220 BECMG 2223/2224 18010KT RMK NXT FCST BY 220600Z=
TAF
LOCATION

CYXU - LONDON/ON
VALIDITY [UTC]
21 JAN - 2338 to
23 JAN - 0000
 
TIMES
[UTC]
WIND
[DEGREES TRUE]
VISIBILITY
[STAT. MILES]
WEATHER
CLOUDINESS
[FEET AGL]
 
22 JAN - 0000 to
22 JAN - 1100
260 @ 7 KNOTS
6+
NIL
2500 SCATTERED
TEMPORARY CHANGES
22 JAN - 0000 to
22 JAN - 0300
 
 
 
2000 BROKEN
BECOMING
22 JAN - 0100 to
22 JAN - 0300
VARIABLE @ 3 KNOTS
 
 
 
 
22 JAN - 1100 to
22 JAN - 1400
90 @ 5 KNOTS
6+
NIL
12000 BROKEN
20000 OVERCAST
 
22 JAN - 1400 to
22 JAN - 2000
130 @ 10 KNOTS
6+
NIL
10000 OVERCAST
BECOMING
22 JAN - 1600 to
22 JAN - 1700
140 @ 12 KNOTS
GUSTS 22 KNOTS
 
 
 
 
22 JAN - 2000 to
23 JAN - 0000
160 @ 12 KNOTS
GUSTS 22 KNOTS
6+
NIL
14000 SCATTERED
22000 BROKEN
BECOMING
22 JAN - 2300 to
23 JAN - 0000
180 @ 10 KNOTS
 
 
 
REMARKS
THE NEXT FORECAST WILL BE ISSUED BY 0600 UTC ON DAY 22




Your time UTC time
Weather data provided by Environment Canada and NAV CANADA